createdAt,value
2022-07-28T00:02:17.287Z,17.00
2022-07-28T00:04:46.447Z,17.00
2022-07-28T00:07:15.888Z,17.20
2022-07-28T00:09:44.899Z,17.20
2022-07-28T00:12:13.829Z,17.20
2022-07-28T00:14:42.777Z,17.20
2022-07-28T00:17:13.530Z,17.10
2022-07-28T00:19:42.553Z,17.10
2022-07-28T00:22:11.377Z,17.00
2022-07-28T00:24:40.662Z,17.10
2022-07-28T00:27:10.002Z,17.10
2022-07-28T00:29:49.841Z,17.10
2022-07-28T00:32:22.111Z,17.10
2022-07-28T00:34:53.449Z,17.10
2022-07-28T00:37:22.669Z,17.00
2022-07-28T00:39:51.964Z,17.00
2022-07-28T00:42:21.228Z,17.10
2022-07-28T00:44:50.165Z,17.10
2022-07-28T00:47:20.321Z,17.10
2022-07-28T00:49:51.436Z,17.00
2022-07-28T00:52:20.553Z,17.00
2022-07-28T00:54:49.531Z,16.90
2022-07-28T00:57:18.343Z,17.00
2022-07-28T00:59:47.211Z,16.90
2022-07-28T01:02:16.363Z,16.90
2022-07-28T01:04:45.643Z,16.90
2022-07-28T01:07:25.601Z,16.80
2022-07-28T01:10:05.446Z,16.80
2022-07-28T01:12:57.259Z,16.80
2022-07-28T01:15:32.201Z,16.80
2022-07-28T01:18:06.613Z,16.80
2022-07-28T01:20:40.849Z,16.60
2022-07-28T01:23:43.630Z,16.70
2022-07-28T01:26:25.973Z,16.60
2022-07-28T01:29:12.439Z,16.60
2022-07-28T01:31:46.130Z,16.50
2022-07-28T01:34:20.944Z,16.60
2022-07-28T01:36:56.566Z,16.60
2022-07-28T01:39:29.962Z,16.50
2022-07-28T01:42:01.314Z,16.40
2022-07-28T01:44:32.130Z,16.40
2022-07-28T01:47:07.770Z,16.50
2022-07-28T01:49:37.500Z,16.20
2022-07-28T01:52:09.450Z,16.50
2022-07-28T01:54:43.739Z,16.60
2022-07-28T01:57:15.179Z,16.20
2022-07-28T01:59:45.487Z,16.50
2022-07-28T02:02:20.229Z,17.20
2022-07-28T02:04:51.565Z,16.50
2022-07-28T02:07:22.202Z,16.50
2022-07-28T02:09:52.571Z,16.40
2022-07-28T02:12:23.199Z,16.50
2022-07-28T02:14:53.410Z,16.60
2022-07-28T02:17:29.892Z,16.40
2022-07-28T04:21:10.575Z,15.00
2022-07-28T04:23:40.239Z,14.80
2022-07-28T04:26:09.449Z,14.80
2022-07-28T04:28:38.567Z,14.70
2022-07-28T04:31:08.221Z,14.60
2022-07-28T04:33:37.300Z,14.60
2022-07-28T04:36:06.686Z,14.60
2022-07-28T04:38:37.968Z,14.70
2022-07-28T04:41:07.259Z,14.90
2022-07-28T04:43:37.730Z,15.00
2022-07-28T04:46:06.711Z,15.00
2022-07-28T04:48:36.115Z,14.90
2022-07-28T04:51:06.096Z,15.20
2022-07-28T04:53:37.631Z,15.60
2022-07-28T04:56:07.030Z,16.50
2022-07-28T04:58:37.277Z,17.40
2022-07-28T05:01:10.174Z,18.50
2022-07-28T05:03:39.778Z,19.50
2022-07-28T05:06:09.184Z,20.30
2022-07-28T05:08:42.721Z,20.50
2022-07-28T05:11:12.164Z,20.10
2022-07-28T05:13:42.639Z,20.30
2022-07-28T05:16:12.543Z,20.40
2022-07-28T05:18:42.006Z,20.50
2022-07-28T05:21:11.910Z,20.10
2022-07-28T05:23:47.587Z,19.70
2022-07-28T05:26:17.509Z,19.50
2022-07-28T05:28:46.862Z,19.90
2022-07-28T05:31:17.501Z,20.30
2022-07-28T05:33:46.844Z,21.10
2022-07-28T05:36:18.244Z,21.80
2022-07-28T05:38:49.731Z,21.90
2022-07-28T05:41:18.935Z,21.70
2022-07-28T05:43:47.934Z,22.00
2022-07-28T05:46:17.077Z,21.90
2022-07-28T05:48:47.725Z,21.60
2022-07-28T05:51:18.131Z,21.50
2022-07-28T05:53:48.679Z,20.60
2022-07-28T05:56:17.683Z,20.70
2022-07-28T05:58:46.600Z,20.70
2022-07-28T06:01:16.031Z,21.10
2022-07-28T06:03:47.847Z,21.40
2022-07-28T06:06:27.419Z,21.90
2022-07-28T06:09:32.187Z,22.50
2022-07-28T06:12:02.082Z,22.80
2022-07-28T06:14:36.066Z,23.80
2022-07-28T06:17:19.373Z,24.50
2022-07-28T06:20:06.412Z,24.10
2022-07-28T06:22:50.018Z,23.20
2022-07-28T06:25:30.257Z,22.00
2022-07-28T06:28:17.521Z,21.00
2022-07-28T06:31:08.368Z,20.40
2022-07-28T06:36:36.324Z,19.70
2022-07-28T06:39:07.212Z,19.60
2022-07-28T06:41:47.728Z,19.40
2022-07-28T06:44:19.874Z,19.50
2022-07-28T06:46:51.787Z,19.80
2022-07-28T06:49:21.710Z,20.10
2022-07-28T06:51:51.568Z,20.50
2022-07-28T06:54:37.105Z,20.60
2022-07-28T06:57:16.901Z,21.20
2022-07-28T06:59:48.315Z,21.70
2022-07-28T07:02:18.937Z,22.10
2022-07-28T07:04:48.827Z,22.70
2022-07-28T07:07:18.228Z,22.70
2022-07-28T07:09:48.591Z,23.40
2022-07-28T07:12:24.835Z,23.90
2022-07-28T07:14:57.921Z,24.80
2022-07-28T07:17:27.049Z,25.20
2022-07-28T07:19:57.523Z,25.40
2022-07-28T07:22:32.554Z,25.40
2022-07-28T07:25:14.007Z,24.80
2022-07-28T07:27:47.955Z,24.50
2022-07-28T07:30:20.492Z,25.00
2022-07-28T07:32:53.620Z,25.60
2022-07-28T07:35:24.960Z,25.60
2022-07-28T07:37:57.810Z,25.80
2022-07-28T07:40:27.152Z,25.70
2022-07-28T07:43:00.444Z,24.10
2022-07-28T07:45:30.346Z,23.90
2022-07-28T07:47:59.425Z,24.50
2022-07-28T07:50:31.607Z,24.60
2022-07-28T07:53:01.350Z,24.20
2022-07-28T07:55:37.268Z,23.70
2022-07-28T07:58:08.814Z,24.60
2022-07-28T08:00:51.754Z,25.50
2022-07-28T08:03:23.107Z,26.20
2022-07-28T08:05:59.278Z,25.90
2022-07-28T08:08:37.284Z,25.20
2022-07-28T08:11:11.562Z,25.50
2022-07-28T08:13:46.593Z,26.10
2022-07-28T08:16:27.647Z,26.20
2022-07-28T08:19:00.543Z,26.80
2022-07-28T08:21:34.089Z,25.90
2022-07-28T08:24:04.286Z,25.80
2022-07-28T08:26:34.039Z,26.90
2022-07-28T08:29:10.953Z,27.90
2022-07-28T08:31:41.714Z,28.50
2022-07-28T08:34:26.169Z,28.60
2022-07-28T08:37:09.063Z,28.60
2022-07-28T08:39:39.922Z,26.40
2022-07-28T08:42:14.461Z,27.50
2022-07-28T08:45:01.406Z,28.30
2022-07-28T08:47:45.963Z,28.80
2022-07-28T08:50:24.909Z,28.90
2022-07-28T08:53:03.876Z,29.30
2022-07-28T08:55:37.101Z,29.40
2022-07-28T08:58:08.467Z,29.10
2022-07-28T09:00:44.597Z,28.60
2022-07-28T09:03:21.151Z,27.50
2022-07-28T09:05:52.146Z,26.80
2022-07-28T09:08:23.112Z,26.70
2022-07-28T09:10:57.215Z,26.70
2022-07-28T09:13:30.857Z,26.60
2022-07-28T09:16:21.694Z,26.40
2022-07-28T09:19:05.155Z,27.20
2022-07-28T09:21:35.174Z,28.20
2022-07-28T09:24:07.671Z,27.90
2022-07-28T09:26:37.678Z,28.40
2022-07-28T09:29:14.147Z,27.10
2022-07-28T09:31:57.279Z,27.40
2022-07-28T09:34:29.039Z,28.00
2022-07-28T09:37:28.008Z,28.70
2022-07-28T09:39:59.874Z,28.10
2022-07-28T09:42:47.121Z,28.00
2022-07-28T09:45:23.508Z,28.70
2022-07-28T09:48:12.579Z,28.50
2022-07-28T09:50:46.984Z,28.10
2022-07-28T09:53:28.532Z,28.20
2022-07-28T09:56:01.359Z,28.00
2022-07-28T09:58:32.312Z,27.90
2022-07-28T10:01:16.896Z,28.30
2022-07-28T10:04:06.893Z,28.80
2022-07-28T10:06:41.985Z,28.60
2022-07-28T10:09:17.708Z,26.50
2022-07-28T10:11:47.039Z,26.20
2022-07-28T10:14:23.571Z,26.30
2022-07-28T10:17:05.893Z,26.50
2022-07-28T10:19:42.034Z,27.20
2022-07-28T10:22:13.765Z,27.40
2022-07-28T10:24:44.083Z,27.50
2022-07-28T10:27:18.129Z,27.00
2022-07-28T10:29:51.991Z,27.50
2022-07-28T10:32:25.590Z,27.30
2022-07-28T10:35:03.922Z,26.60
2022-07-28T10:37:40.864Z,26.50
2022-07-28T10:40:16.923Z,26.30
2022-07-28T10:42:48.735Z,25.90
2022-07-28T10:45:19.179Z,25.70
2022-07-28T10:47:59.483Z,25.50
2022-07-28T10:54:24.834Z,25.80
2022-07-28T11:03:55.398Z,25.80
2022-07-28T11:06:46.671Z,25.70
2022-07-28T11:16:44.351Z,25.30
2022-07-28T11:22:55.997Z,26.10
2022-07-28T11:25:58.787Z,26.40
2022-07-28T11:32:14.524Z,24.90
2022-07-28T11:38:24.453Z,25.70
2022-07-28T11:41:18.186Z,25.90
2022-07-28T11:44:35.300Z,26.40
2022-07-28T11:48:01.077Z,26.80
2022-07-28T11:57:34.850Z,26.70
2022-07-28T12:00:27.765Z,26.20
2022-07-28T12:03:08.156Z,26.40
2022-07-28T12:08:25.014Z,26.10
2022-07-28T12:10:57.929Z,26.00
2022-07-28T12:13:49.475Z,26.50
2022-07-28T12:16:24.190Z,26.50
2022-07-28T12:22:18.461Z,26.50
2022-07-28T12:24:49.979Z,26.60
2022-07-28T12:27:31.826Z,26.40
2022-07-28T12:30:03.165Z,26.50
2022-07-28T12:32:36.159Z,26.90
2022-07-28T12:35:16.692Z,26.50
2022-07-28T12:37:49.938Z,26.20
2022-07-28T12:40:27.404Z,26.40
2022-07-28T12:42:59.489Z,26.50
2022-07-28T12:45:29.584Z,26.50
2022-07-28T12:48:10.015Z,26.70
2022-07-28T12:50:44.394Z,26.90
2022-07-28T12:53:32.301Z,26.30
2022-07-28T12:56:19.896Z,26.10
2022-07-28T12:59:10.133Z,26.10
2022-07-28T13:01:53.409Z,26.70
2022-07-28T13:04:48.484Z,26.30
2022-07-28T13:07:31.157Z,26.00
2022-07-28T13:10:17.911Z,26.30
2022-07-28T13:13:02.599Z,26.20
2022-07-28T13:15:32.496Z,26.20
2022-07-28T13:18:05.492Z,26.30
2022-07-28T13:20:54.974Z,26.30
2022-07-28T13:23:35.463Z,26.40
2022-07-28T13:26:12.947Z,26.50
2022-07-28T13:28:48.218Z,26.60
2022-07-28T13:31:24.098Z,26.60
2022-07-28T13:33:53.753Z,26.50
2022-07-28T13:36:24.681Z,26.50
2022-07-28T13:39:09.432Z,26.50
2022-07-28T13:41:56.466Z,26.20
2022-07-28T13:44:35.711Z,25.40
2022-07-28T13:47:16.591Z,25.80
2022-07-28T13:49:50.881Z,25.60
2022-07-28T13:52:33.107Z,25.70
2022-07-28T13:55:10.275Z,25.80
2022-07-28T13:57:42.973Z,26.00
2022-07-28T14:00:22.996Z,26.00
2022-07-28T14:02:53.160Z,26.40
2022-07-28T14:05:24.626Z,26.40
2022-07-28T14:08:05.755Z,26.40
2022-07-28T14:10:38.705Z,26.20
2022-07-28T14:13:10.121Z,26.10
2022-07-28T14:15:40.178Z,26.00
2022-07-28T14:18:10.367Z,26.30
2022-07-28T14:20:48.615Z,26.30
2022-07-28T14:23:18.041Z,26.50
2022-07-28T14:25:49.527Z,26.70
2022-07-28T14:28:22.372Z,26.70
2022-07-28T14:30:54.642Z,26.70
2022-07-28T14:33:26.247Z,26.80
2022-07-28T14:35:55.708Z,26.50
2022-07-28T14:38:54.599Z,26.30
2022-07-28T14:41:26.075Z,26.20
2022-07-28T14:43:59.849Z,26.50
2022-07-28T14:46:31.789Z,26.50
2022-07-28T14:49:02.293Z,26.60
2022-07-28T14:51:32.484Z,26.50
2022-07-28T14:54:11.409Z,26.20
2022-07-28T14:56:41.125Z,26.00
2022-07-28T14:59:15.380Z,26.10
2022-07-28T15:01:45.305Z,25.90
2022-07-28T15:04:18.806Z,25.80
2022-07-28T15:06:50.038Z,25.70
2022-07-28T15:09:21.855Z,25.60
2022-07-28T15:11:56.520Z,25.70
2022-07-28T15:14:31.925Z,25.80
2022-07-28T15:17:01.249Z,26.00
2022-07-28T15:19:34.623Z,26.00
2022-07-28T15:22:07.322Z,25.90
2022-07-28T15:24:46.569Z,25.90
2022-07-28T15:27:16.768Z,26.20
2022-07-28T15:29:52.195Z,26.20
2022-07-28T15:32:28.303Z,26.20
2022-07-28T15:35:05.713Z,26.20
2022-07-28T15:37:37.812Z,26.20
2022-07-28T15:40:09.363Z,25.80
2022-07-28T15:42:47.593Z,25.90
2022-07-28T15:45:25.700Z,25.90
2022-07-28T15:47:55.899Z,26.00
2022-07-28T15:50:25.624Z,25.80
2022-07-28T15:52:55.293Z,26.00
2022-07-28T15:55:24.861Z,26.10
2022-07-28T15:57:55.664Z,26.00
2022-07-28T16:00:26.605Z,25.70
2022-07-28T16:02:59.523Z,25.60
2022-07-28T16:05:29.600Z,25.30
2022-07-28T16:08:04.125Z,25.10
2022-07-28T16:10:33.900Z,25.20
2022-07-28T16:13:03.614Z,25.20
2022-07-28T16:15:37.476Z,25.30
2022-07-28T16:18:07.379Z,25.30
2022-07-28T16:20:42.914Z,25.30
2022-07-28T16:23:12.430Z,25.20
2022-07-28T16:25:50.844Z,25.10
2022-07-28T16:28:20.733Z,25.10
2022-07-28T16:30:54.160Z,24.90
2022-07-28T16:33:25.283Z,25.00
2022-07-28T16:36:02.311Z,25.10
2022-07-28T16:38:44.415Z,25.00
2022-07-28T16:41:16.139Z,25.10
2022-07-28T16:43:46.318Z,25.00
2022-07-28T16:46:25.801Z,24.90
2022-07-28T16:48:58.166Z,25.00
2022-07-28T16:51:48.611Z,24.70
2022-07-28T16:54:21.337Z,24.70
2022-07-28T16:57:18.111Z,24.60
2022-07-28T16:59:53.684Z,24.70
2022-07-28T17:02:25.549Z,24.80
2022-07-28T17:05:01.544Z,24.70
2022-07-28T17:07:44.980Z,24.70
2022-07-28T17:10:21.081Z,24.60
2022-07-28T17:13:01.527Z,24.40
2022-07-28T17:15:30.957Z,24.60
2022-07-28T17:18:02.436Z,24.60
2022-07-28T17:20:31.913Z,24.80
2022-07-28T17:23:10.320Z,24.80
2022-07-28T17:28:30.280Z,24.90
2022-07-28T17:31:00.438Z,24.70
2022-07-28T17:33:32.012Z,24.60
2022-07-28T17:36:01.959Z,24.50
2022-07-28T17:38:34.798Z,24.40
2022-07-28T17:41:08.102Z,24.40
2022-07-28T17:43:48.175Z,24.50
2022-07-28T17:46:21.603Z,24.10
2022-07-28T17:48:55.743Z,24.40
2022-07-28T17:51:25.182Z,24.40
2022-07-28T17:53:55.634Z,24.30
2022-07-28T17:56:27.926Z,24.20
2022-07-28T17:59:02.038Z,24.20
2022-07-28T18:01:31.745Z,24.10
2022-07-28T18:04:03.322Z,24.00
2022-07-28T18:06:40.230Z,24.10
2022-07-28T18:09:13.073Z,24.00
2022-07-28T18:11:57.988Z,24.10
2022-07-28T18:14:31.830Z,24.10
2022-07-28T18:17:06.632Z,24.10
2022-07-28T18:19:45.549Z,24.10
2022-07-28T18:22:21.733Z,24.10
2022-07-28T18:24:52.753Z,24.10
2022-07-28T18:27:29.182Z,24.10
2022-07-28T18:30:01.807Z,24.00
2022-07-28T18:32:32.591Z,24.00
2022-07-28T18:35:05.838Z,23.90
2022-07-28T18:37:35.912Z,23.90
2022-07-28T18:40:09.848Z,23.90
2022-07-28T18:42:48.354Z,23.90
2022-07-28T18:45:18.690Z,23.90
2022-07-28T18:47:59.286Z,23.80
2022-07-28T18:50:32.699Z,23.90
2022-07-28T18:53:02.732Z,23.90
2022-07-28T18:55:33.816Z,23.80
2022-07-28T18:58:09.665Z,23.60
2022-07-28T19:00:41.258Z,23.60
2022-07-28T19:03:13.911Z,23.50
2022-07-28T19:05:46.510Z,23.50
2022-07-28T19:08:17.227Z,23.40
2022-07-28T19:10:47.013Z,23.40
2022-07-28T19:13:18.037Z,23.30
2022-07-28T19:15:48.326Z,23.20
2022-07-28T19:18:18.029Z,22.90
2022-07-28T19:20:50.619Z,22.90
2022-07-28T19:23:25.049Z,22.90
2022-07-28T19:25:57.040Z,22.80
2022-07-28T19:28:27.387Z,22.80
2022-07-28T19:30:58.858Z,22.70
2022-07-28T19:33:28.332Z,22.60
2022-07-28T19:36:01.315Z,22.60
2022-07-28T19:38:35.818Z,22.60
2022-07-28T19:41:09.723Z,22.60
2022-07-28T19:43:42.663Z,22.60
2022-07-28T19:46:13.352Z,22.60
2022-07-28T19:48:43.807Z,22.70
2022-07-28T19:51:20.284Z,22.70
2022-07-28T19:53:50.723Z,22.70
2022-07-28T19:56:23.363Z,22.70
2022-07-28T19:59:01.259Z,22.80
2022-07-28T20:01:32.088Z,22.70
2022-07-28T20:04:05.223Z,22.60
2022-07-28T20:06:36.737Z,22.60
2022-07-28T20:09:07.143Z,22.80
2022-07-28T20:11:38.666Z,22.90
2022-07-28T20:14:08.806Z,22.90
2022-07-28T20:16:38.644Z,22.80
2022-07-28T20:19:09.880Z,22.80
2022-07-28T20:21:43.606Z,22.70
2022-07-28T20:24:16.048Z,22.70
2022-07-28T20:26:46.787Z,22.70
2022-07-28T20:29:18.967Z,22.60
2022-07-28T20:31:50.594Z,22.80
2022-07-28T20:34:19.969Z,22.70
2022-07-28T20:36:54.324Z,22.60
2022-07-28T20:39:43.727Z,22.70
2022-07-28T20:42:14.675Z,22.80
2022-07-28T20:44:49.975Z,22.80
2022-07-28T20:47:21.430Z,22.80
2022-07-28T20:49:51.084Z,22.80
2022-07-28T20:52:27.040Z,22.80
2022-07-28T20:55:05.142Z,22.70
2022-07-28T20:57:35.171Z,22.70
2022-07-28T21:00:08.122Z,22.50
2022-07-28T21:02:38.705Z,22.70
2022-07-28T21:05:23.931Z,22.50
2022-07-28T21:08:09.596Z,22.50
2022-07-28T21:10:47.448Z,22.30
2022-07-28T21:13:18.789Z,22.30
2022-07-28T21:15:51.427Z,22.30
2022-07-28T21:18:21.474Z,22.20
2022-07-28T21:20:51.159Z,22.30
2022-07-28T21:23:39.257Z,22.30
2022-07-28T21:26:12.146Z,22.00
2022-07-28T21:29:02.995Z,22.20
2022-07-28T21:31:32.748Z,22.10
2022-07-28T21:34:03.386Z,22.20
2022-07-28T21:36:34.015Z,22.30
2022-07-28T21:39:09.450Z,22.20
2022-07-28T21:41:39.219Z,22.20
2022-07-28T21:44:13.890Z,22.10
2022-07-28T21:46:46.262Z,21.90
2022-07-28T21:49:18.592Z,22.00
2022-07-28T21:51:50.515Z,22.00
2022-07-28T21:54:26.790Z,21.90
2022-07-28T21:56:56.945Z,21.50
2022-07-28T21:59:27.778Z,21.60
2022-07-28T22:01:57.346Z,21.60
2022-07-28T22:04:30.743Z,21.50
2022-07-28T22:07:01.350Z,21.50
2022-07-28T22:09:38.113Z,21.40
2022-07-28T22:12:10.014Z,21.40
2022-07-28T22:14:39.740Z,21.40
2022-07-28T22:17:09.933Z,21.40
2022-07-28T22:19:39.589Z,21.40
2022-07-28T22:22:09.045Z,21.40
2022-07-28T22:24:40.199Z,21.30
2022-07-28T22:27:09.279Z,21.30
2022-07-28T22:29:39.761Z,21.20
2022-07-28T22:32:15.018Z,21.20
2022-07-28T22:34:44.427Z,21.20
2022-07-28T22:37:13.473Z,21.10
2022-07-28T22:39:45.999Z,21.00
2022-07-28T22:42:22.289Z,21.10
2022-07-28T22:44:51.628Z,21.10
2022-07-28T22:47:23.002Z,21.10
2022-07-28T22:49:54.352Z,21.20
2022-07-28T22:52:27.236Z,21.20
2022-07-28T22:54:58.587Z,21.30
2022-07-28T22:57:28.080Z,21.20
2022-07-28T22:59:57.662Z,21.20
2022-07-28T23:02:27.750Z,21.20
2022-07-28T23:08:39.570Z,21.10
2022-07-28T23:11:10.902Z,21.00
2022-07-28T23:13:40.256Z,21.00
2022-07-28T23:16:10.695Z,20.90
2022-07-28T23:18:41.336Z,20.80
2022-07-28T23:21:11.070Z,20.80
2022-07-28T23:23:40.548Z,20.70
2022-07-28T23:26:16.502Z,20.70
2022-07-28T23:28:45.782Z,20.60
2022-07-28T23:31:15.630Z,20.60
2022-07-28T23:33:54.401Z,20.60
2022-07-28T23:36:26.941Z,20.40
2022-07-28T23:38:59.241Z,20.50
2022-07-28T23:41:30.940Z,20.50
2022-07-28T23:43:59.804Z,20.60
2022-07-28T23:46:29.470Z,20.60
2022-07-28T23:48:58.774Z,20.70
2022-07-28T23:51:48.234Z,20.70
2022-07-28T23:54:17.154Z,20.60
2022-07-28T23:56:52.540Z,20.40
2022-07-28T23:59:22.678Z,20.50
